Maldives Meteorological Service

METAR

Station
VRMM
METAR VRMM 301600Z 35004KT 9999 FEW018 29/25 Q1012 NOSIG=
VRMH
METAR VRMH 301600Z 35004KT 9999 FEW018 29/26 Q1012=
VRMK
METAR VRMK 301600Z 24003KT 9999 FEW018 29/24 Q1012=
VRMT
METAR VRMT 301600Z 32005KT 9999 FEW018TCU 28/23 Q1012=
VRMG
METAR VRMG 301600Z 32003KT 9999 FEW019 SCT270 29/24 Q1012=
Last Updated : 2017-03-30 21:01:00

SPECI

Station
VRMM
VRMH
VRMK
VRMT
VRMG
Last Updated : 2017-03-30 21:01:00